createdAt,value
2023-08-24T00:01:28.247Z,100835.82
2023-08-24T00:06:31.346Z,100835.61
2023-08-24T00:11:34.231Z,100831.34
2023-08-24T00:16:37.519Z,100833.73
2023-08-24T00:21:40.539Z,100828.83
2023-08-24T00:26:43.353Z,100826.90
2023-08-24T00:31:46.216Z,100823.59
2023-08-24T00:36:49.392Z,100824.23
2023-08-24T00:41:52.312Z,100822.83
2023-08-24T00:46:55.583Z,100821.80
2023-08-24T00:51:58.689Z,100826.79
2023-08-24T00:57:01.547Z,100826.74
2023-08-24T01:02:04.420Z,100822.85
2023-08-24T01:07:08.138Z,100824.73
2023-08-24T01:12:33.053Z,100828.10
2023-08-24T01:17:36.467Z,100827.60
2023-08-24T01:23:07.643Z,100824.89
2023-08-24T01:28:10.581Z,100817.71
2023-08-24T01:33:14.684Z,100817.33
2023-08-24T01:38:17.579Z,100820.13
2023-08-24T01:43:36.804Z,100813.43
2023-08-24T01:48:45.695Z,100808.04
2023-08-24T01:53:48.650Z,100803.89
2023-08-24T01:58:51.512Z,100803.06
2023-08-24T02:03:54.479Z,100806.98
2023-08-24T02:08:58.733Z,100803.85
2023-08-24T02:14:01.665Z,100803.12
2023-08-24T02:19:04.528Z,100795.52
2023-08-24T02:24:07.771Z,100792.86
2023-08-24T02:29:10.913Z,100795.39
2023-08-24T02:34:13.879Z,100793.98
2023-08-24T02:39:17.345Z,100789.34
2023-08-24T02:44:20.248Z,100787.51
2023-08-24T02:49:23.225Z,100792.27
2023-08-24T02:54:26.105Z,100794.31
2023-08-24T02:59:28.982Z,100793.77
2023-08-24T03:04:32.119Z,100796.75
2023-08-24T03:09:37.826Z,100796.91
2023-08-24T03:14:40.840Z,100796.83
2023-08-24T03:19:43.764Z,100798.78
2023-08-24T03:24:46.694Z,100798.73
2023-08-24T03:29:49.561Z,100799.64
2023-08-24T03:34:52.678Z,100795.01
2023-08-24T03:39:55.740Z,100793.44
2023-08-24T03:45:01.001Z,100792.40
2023-08-24T03:50:04.608Z,100787.29
2023-08-24T03:55:08.574Z,100780.60
2023-08-24T04:00:12.588Z,100788.05
2023-08-24T04:05:15.640Z,100785.30
2023-08-24T04:10:18.548Z,100789.55
2023-08-24T04:15:21.818Z,100793.30
2023-08-24T04:20:24.679Z,100797.10
2023-08-24T04:25:27.503Z,100803.08
2023-08-24T04:30:30.530Z,100808.59
2023-08-24T04:35:37.121Z,100810.02
2023-08-24T04:40:51.949Z,100813.35
2023-08-24T04:45:55.699Z,100807.83
2023-08-24T04:50:58.939Z,100808.85
2023-08-24T04:56:01.818Z,100811.94
2023-08-24T05:01:05.245Z,100809.38
2023-08-24T05:06:08.088Z,100808.02
2023-08-24T05:11:18.035Z,100811.58
2023-08-24T05:16:21.074Z,100816.79
2023-08-24T05:21:24.022Z,100821.35
2023-08-24T05:26:26.904Z,100821.10
2023-08-24T05:31:29.822Z,100818.80
2023-08-24T05:36:32.706Z,100820.41
2023-08-24T05:41:36.044Z,100815.24
2023-08-24T05:46:38.911Z,100824.08
2023-08-24T05:51:41.907Z,100818.75
2023-08-24T05:56:44.908Z,100817.30
2023-08-24T06:01:47.813Z,100819.67
2023-08-24T06:06:50.758Z,100819.58
2023-08-24T06:11:53.676Z,100816.79
2023-08-24T06:16:57.146Z,100814.17
2023-08-24T06:21:59.996Z,100819.91
2023-08-24T06:27:03.075Z,100819.23
2023-08-24T06:32:06.163Z,100822.48
2023-08-24T06:37:09.014Z,100814.31
2023-08-24T06:42:12.022Z,100814.75
2023-08-24T06:47:16.033Z,100812.23
2023-08-24T06:52:19.347Z,100818.23
2023-08-24T06:57:22.450Z,100815.86
2023-08-24T07:02:25.309Z,100815.42
2023-08-24T07:07:28.341Z,100822.09
2023-08-24T07:12:31.541Z,100822.59
2023-08-24T07:17:34.594Z,100830.62
2023-08-24T07:22:37.492Z,100836.84
2023-08-24T07:27:40.336Z,100836.56
2023-08-24T07:32:43.309Z,100839.09
2023-08-24T07:37:46.241Z,100844.83
2023-08-24T07:42:55.853Z,100843.16
2023-08-24T07:47:58.831Z,100838.09
2023-08-24T07:53:01.726Z,100833.85
2023-08-24T07:58:05.292Z,100832.48
2023-08-24T08:03:08.246Z,100828.54
2023-08-24T08:08:11.376Z,100828.86
2023-08-24T08:13:14.332Z,100828.40
2023-08-24T08:18:17.542Z,100824.90
2023-08-24T08:23:20.577Z,100823.70
2023-08-24T08:28:23.580Z,100820.91
2023-08-24T08:33:26.477Z,100824.70
2023-08-24T08:38:29.452Z,100823.08
2023-08-24T08:43:32.442Z,100824.66
2023-08-24T08:48:35.680Z,100816.31
2023-08-24T08:53:38.616Z,100813.01
2023-08-24T08:58:44.641Z,100813.89
2023-08-24T09:03:47.636Z,100811.39
2023-08-24T09:08:51.720Z,100812.27
2023-08-24T09:13:54.692Z,100815.34
2023-08-24T09:18:57.566Z,100811.02
2023-08-24T09:24:00.497Z,100806.00
2023-08-24T09:29:14.343Z,100804.07
2023-08-24T09:34:24.286Z,100800.87
2023-08-24T09:39:27.216Z,100792.40
2023-08-24T09:44:30.110Z,100785.83
2023-08-24T09:49:32.980Z,100785.88
2023-08-24T09:54:39.240Z,100784.36
2023-08-24T09:59:42.137Z,100778.08
2023-08-24T10:04:45.012Z,100774.60
2023-08-24T10:10:04.878Z,100779.81
2023-08-24T10:15:14.471Z,100780.88
2023-08-24T10:20:17.734Z,100780.55
2023-08-24T10:25:20.633Z,100781.94
2023-08-24T10:30:23.662Z,100783.12
2023-08-24T10:35:28.202Z,100779.55
2023-08-24T10:40:34.982Z,100780.75
2023-08-24T10:46:01.419Z,100781.16
2023-08-24T10:51:27.951Z,100780.37
2023-08-24T10:56:39.885Z,100779.77
2023-08-24T11:01:45.097Z,100778.61
2023-08-24T11:07:03.355Z,100770.59
2023-08-24T11:12:06.553Z,100772.65
2023-08-24T11:17:20.123Z,100764.32
2023-08-24T11:22:23.148Z,100756.65
2023-08-24T11:27:25.998Z,100758.50
2023-08-24T11:32:28.931Z,100756.08
2023-08-24T11:37:31.971Z,100750.56
2023-08-24T11:42:37.681Z,100751.42
2023-08-24T11:47:40.643Z,100750.75
2023-08-24T11:52:43.950Z,100742.96
2023-08-24T11:57:46.838Z,100741.77
2023-08-24T12:02:49.978Z,100736.10
2023-08-24T12:07:55.978Z,100726.00
2023-08-24T12:13:05.579Z,100722.48
2023-08-24T12:18:12.831Z,100719.91
2023-08-24T12:23:15.851Z,100715.11
2023-08-24T12:28:18.817Z,100707.02
2023-08-24T12:33:23.933Z,100700.39
2023-08-24T12:38:27.578Z,100699.86
2023-08-24T12:43:30.543Z,100699.04
2023-08-24T12:48:33.687Z,100696.47
2023-08-24T12:53:36.687Z,100691.74
2023-08-24T12:58:39.668Z,100690.10
2023-08-24T13:03:42.491Z,100689.39
2023-08-24T13:08:45.493Z,100684.19
2023-08-24T13:13:48.349Z,100681.90
2023-08-24T13:18:51.275Z,100678.05
2023-08-24T13:23:54.155Z,100660.48
2023-08-24T13:28:58.385Z,100661.44
2023-08-24T13:34:01.577Z,100661.96
2023-08-24T13:39:05.938Z,100658.64
2023-08-24T13:44:08.861Z,100658.33
2023-08-24T13:49:12.976Z,100647.38
2023-08-24T13:54:18.493Z,100645.20
2023-08-24T13:59:22.262Z,100639.02
2023-08-24T14:04:25.122Z,100636.42
2023-08-24T14:09:28.177Z,100633.70
2023-08-24T14:14:31.578Z,100629.16
2023-08-24T14:19:34.578Z,100632.31
2023-08-24T14:24:37.576Z,100631.80
2023-08-24T14:29:40.441Z,100633.38
2023-08-24T14:34:44.571Z,100633.45
2023-08-24T14:39:47.473Z,100639.61
2023-08-24T14:44:50.381Z,100639.58
2023-08-24T14:49:54.593Z,100634.52
2023-08-24T14:54:57.461Z,100627.92
2023-08-24T15:00:00.420Z,100630.46
2023-08-24T15:05:05.361Z,100626.33
2023-08-24T15:10:08.594Z,100627.71
2023-08-24T15:15:11.524Z,100624.86
2023-08-24T15:20:14.619Z,100618.84
2023-08-24T15:25:17.694Z,100610.71
2023-08-24T15:30:20.961Z,100611.92
2023-08-24T15:35:24.109Z,100605.10
2023-08-24T15:40:30.925Z,100604.75
2023-08-24T15:45:34.077Z,100604.45
2023-08-24T15:50:37.312Z,100601.67
2023-08-24T15:55:40.144Z,100598.73
2023-08-24T16:00:43.172Z,100591.60
2023-08-24T16:05:46.166Z,100578.44
2023-08-24T16:10:50.677Z,100581.46
2023-08-24T16:15:53.937Z,100576.61
2023-08-24T16:20:57.019Z,100583.23
2023-08-24T16:26:00.046Z,100585.48
2023-08-24T16:31:03.779Z,100568.03
2023-08-24T16:36:07.619Z,100566.12
2023-08-24T16:41:10.568Z,100576.23
2023-08-24T16:46:13.713Z,100573.00
2023-08-24T16:51:16.820Z,100564.65
2023-08-24T16:56:19.996Z,100575.89
2023-08-24T17:01:22.856Z,100579.02
2023-08-24T17:06:25.940Z,100573.36
2023-08-24T17:11:28.907Z,100565.98
2023-08-24T17:16:31.960Z,100568.52
2023-08-24T17:21:35.360Z,100578.48
2023-08-24T17:26:39.232Z,100587.74
2023-08-24T17:31:43.278Z,100584.42
2023-08-24T17:36:46.229Z,100576.84
2023-08-24T17:41:49.335Z,100574.18
2023-08-24T17:46:52.254Z,100568.06
2023-08-24T17:51:55.284Z,100569.00
2023-08-24T17:56:58.171Z,100572.13
2023-08-24T18:02:01.064Z,100570.93
2023-08-24T18:07:04.106Z,100576.30
2023-08-24T18:12:08.837Z,100591.72
2023-08-24T18:17:12.014Z,100599.88
2023-08-24T18:22:15.355Z,100607.87
2023-08-24T18:27:18.248Z,100617.19
2023-08-24T18:32:21.413Z,100616.56
2023-08-24T18:37:25.424Z,100622.95
2023-08-24T18:42:28.283Z,100618.52
2023-08-24T18:47:31.284Z,100628.48
2023-08-24T18:52:34.232Z,100628.88
2023-08-24T18:57:37.124Z,100622.38
2023-08-24T19:02:40.408Z,100618.80
2023-08-24T19:07:43.346Z,100615.91
2023-08-24T19:12:49.591Z,100616.04
2023-08-24T19:17:53.829Z,100625.48
2023-08-24T19:22:57.011Z,100622.22
2023-08-24T19:27:59.855Z,100625.65
2023-08-24T19:33:02.932Z,100623.46
2023-08-24T19:38:06.155Z,100617.06
2023-08-24T19:43:09.137Z,100618.08
2023-08-24T19:48:12.167Z,100612.11
2023-08-24T19:53:15.154Z,100607.77
2023-08-24T19:58:18.081Z,100611.42
2023-08-24T20:03:20.995Z,100617.06
2023-08-24T20:08:28.322Z,100611.88
2023-08-24T20:13:31.353Z,100609.22
2023-08-24T20:18:34.361Z,100607.81
2023-08-24T20:23:41.645Z,100602.84
2023-08-24T20:28:44.751Z,100607.42
2023-08-24T20:33:47.753Z,100604.64
2023-08-24T20:38:50.769Z,100601.41
2023-08-24T20:43:53.697Z,100608.98
2023-08-24T20:48:56.741Z,100609.47
2023-08-24T20:54:00.175Z,100603.18
2023-08-24T20:59:04.844Z,100590.73
2023-08-24T21:04:09.443Z,100583.34
2023-08-24T21:09:13.091Z,100584.65
2023-08-24T21:14:16.044Z,100586.75
2023-08-24T21:19:19.056Z,100583.31
2023-08-24T21:24:22.080Z,100579.10
2023-08-24T21:29:25.856Z,100580.88
2023-08-24T21:34:28.768Z,100582.55
2023-08-24T21:39:31.606Z,100572.02
2023-08-24T21:44:34.641Z,100569.40
2023-08-24T21:49:37.530Z,100566.77
2023-08-24T21:54:40.530Z,100569.19
2023-08-24T21:59:44.802Z,100572.06
2023-08-24T22:04:47.739Z,100574.27
2023-08-24T22:09:50.642Z,100575.81
2023-08-24T22:14:53.549Z,100574.31
2023-08-24T22:19:56.524Z,100575.98
2023-08-24T22:24:59.427Z,100564.58
2023-08-24T22:30:05.089Z,100565.14
2023-08-24T22:35:08.991Z,100560.80
2023-08-24T22:40:12.066Z,100552.71
2023-08-24T22:45:15.463Z,100549.74
2023-08-24T22:50:18.501Z,100556.48
2023-08-24T22:55:21.403Z,100555.19
2023-08-24T23:00:24.324Z,100556.48
2023-08-24T23:05:27.593Z,100539.91
2023-08-24T23:10:30.618Z,100530.23
2023-08-24T23:15:33.581Z,100523.98
2023-08-24T23:20:36.588Z,100513.59
2023-08-24T23:25:39.485Z,100507.50
2023-08-24T23:30:42.362Z,100501.08
2023-08-24T23:35:48.289Z,100494.41
2023-08-24T23:40:51.129Z,100495.80
2023-08-24T23:45:54.057Z,100499.75
2023-08-24T23:50:56.921Z,100499.27
2023-08-24T23:55:59.749Z,100486.76
